Time;durP1;ratioP1;P1;durP2;ratioP2;P2;SDS_P1;SDS_P2;PMS_P1;PMS_P2;Temp;Humidity;BMP_temperature;BMP_pressure;BME280_temperature;BME280_humidity;BME280_pressure;Samples;Min_cycle;Max_cycle;Signal;HPM_P1;HPM_P2
2022/05/28 00:02:02;;;;;;;7.97;2.30;;;;;;;12.80;50.42;99419.03;2624688;54;20050;-72
2022/05/28 00:04:33;;;;;;;9.77;2.78;;;;;;;12.75;50.80;99422.25;2623134;54;20010;-63
2022/05/28 00:07:08;;;;;;;7.70;2.10;;;;;;;12.61;50.64;99420.50;2623949;54;20045;-64
2022/05/28 00:09:38;;;;;;;11.32;2.70;;;;;;;12.61;51.28;99416.03;2623993;54;20069;-65
2022/05/28 00:12:09;;;;;;;6.30;2.55;;;;;;;12.54;51.20;99417.81;2624065;54;20041;-65
2022/05/28 00:14:39;;;;;;;9.52;2.25;;;;;;;12.41;51.13;99415.03;2623358;54;20026;-64
2022/05/28 00:17:09;;;;;;;7.57;2.85;;;;;;;12.39;51.44;99417.84;2622789;54;20049;-65
2022/05/28 00:19:39;;;;;;;9.75;2.65;;;;;;;12.41;51.75;99407.06;2621570;54;20037;-64
2022/05/28 00:22:11;;;;;;;9.60;2.90;;;;;;;12.50;51.68;99407.75;2621617;54;20049;-64
2022/05/28 00:24:41;;;;;;;11.98;3.00;;;;;;;12.54;50.99;99409.84;2620612;46;20049;-64
2022/05/28 00:27:11;;;;;;;9.45;2.92;;;;;;;12.54;51.05;99411.69;2621017;47;20034;-64
2022/05/28 00:29:40;;;;;;;10.98;2.45;;;;;;;12.48;51.45;99412.41;2621679;54;20041;-64
2022/05/28 00:32:11;;;;;;;15.20;2.78;;;;;;;12.49;51.69;99409.59;2623110;54;20566;-64
2022/05/28 00:34:43;;;;;;;5.43;2.35;;;;;;;12.45;51.53;99404.84;2623180;54;20015;-64
2022/05/28 00:37:15;;;;;;;9.80;2.65;;;;;;;12.44;51.99;99414.63;2622319;54;20041;-65
2022/05/28 00:39:45;;;;;;;8.88;2.80;;;;;;;12.52;51.98;99408.38;2622058;47;20019;-64
2022/05/28 00:42:15;;;;;;;5.80;2.42;;;;;;;12.61;52.01;99401.94;2622531;54;20085;-64
2022/05/28 00:44:44;;;;;;;12.95;4.20;;;;;;;12.64;51.70;99402.38;2621910;54;20111;-65
2022/05/28 00:47:15;;;;;;;11.52;3.63;;;;;;;12.70;51.86;99403.44;2622965;54;20089;-65
2022/05/28 00:49:45;;;;;;;10.82;3.05;;;;;;;12.73;51.79;99400.41;2623069;54;20037;-65
2022/05/28 00:52:18;;;;;;;11.75;3.15;;;;;;;12.76;51.70;99404.50;2621991;54;20067;-64
2022/05/28 00:54:50;;;;;;;12.77;3.15;;;;;;;12.79;51.83;99398.81;2622514;54;20034;-64
2022/05/28 00:57:21;;;;;;;8.10;2.75;;;;;;;12.81;51.49;99402.09;2623065;54;20025;-63
2022/05/28 00:59:52;;;;;;;8.52;2.15;;;;;;;12.65;51.86;99395.22;2623831;47;20599;-66
2022/05/28 01:02:25;;;;;;;7.95;2.85;;;;;;;12.43;52.46;99385.66;2624401;39;20427;-64
2022/05/28 01:05:00;;;;;;;7.03;1.98;;;;;;;12.45;52.77;99389.78;2623585;54;20027;-64
2022/05/28 01:07:42;;;;;;;8.48;2.80;;;;;;;12.27;53.42;99390.19;2623871;54;20058;-66
2022/05/28 01:10:21;;;;;;;6.80;1.98;;;;;;;12.17;53.62;99388.88;2623184;54;20034;-65
2022/05/28 01:13:00;;;;;;;12.27;2.95;;;;;;;12.07;53.70;99397.13;2623494;54;20090;-68
2022/05/28 01:15:34;;;;;;;9.98;2.47;;;;;;;11.90;54.07;99400.00;2622409;47;20543;-65
2022/05/28 01:18:11;;;;;;;10.07;2.75;;;;;;;11.86;54.78;99397.91;2622621;54;20037;-65
2022/05/28 01:20:47;;;;;;;6.03;2.10;;;;;;;11.78;54.71;99393.50;2623004;54;20126;-64
2022/05/28 01:23:36;;;;;;;11.55;2.90;;;;;;;11.78;55.14;99405.94;2623697;39;20450;-66
2022/05/28 01:26:13;;;;;;;9.32;2.90;;;;;;;11.75;55.10;99401.00;2622349;47;20038;-66
2022/05/28 01:28:49;;;;;;;6.53;2.13;;;;;;;11.78;55.01;99392.69;2624496;39;20492;-67
2022/05/28 01:31:20;;;;;;;8.57;2.13;;;;;;;11.76;55.27;99398.19;2625868;39;20519;-65
2022/05/28 01:33:51;;;;;;;7.63;2.58;;;;;;;11.71;55.57;99397.91;2623433;54;20122;-65
2022/05/28 01:36:22;;;;;;;11.18;2.90;;;;;;;11.57;55.59;99385.53;2623212;39;20427;-65
2022/05/28 01:38:54;;;;;;;9.27;2.53;;;;;;;11.53;55.86;99389.53;2622296;54;20527;-66
2022/05/28 01:41:25;;;;;;;8.18;2.70;;;;;;;11.49;56.37;99388.28;2622594;54;20549;-65
2022/05/28 01:43:59;;;;;;;10.07;2.60;;;;;;;11.44;56.38;99391.47;2622691;54;20042;-66
2022/05/28 01:46:29;;;;;;;;;;;;;;;11.35;56.52;99385.47;2624167;39;20778;-65
2022/05/28 01:49:01;;;;;;;5.88;2.40;;;;;;;11.22;56.81;99387.91;2621218;54;20430;-65
2022/05/28 01:51:36;;;;;;;7.30;2.88;;;;;;;11.19;57.13;99385.63;2621613;54;20039;-65
2022/05/28 01:54:11;;;;;;;7.70;2.63;;;;;;;11.14;57.62;99385.34;2621895;39;20860;-66
2022/05/28 01:56:44;;;;;;;8.70;2.63;;;;;;;11.11;57.66;99378.59;2621725;54;20070;-65
2022/05/28 01:59:19;;;;;;;9.13;2.60;;;;;;;11.07;58.09;99382.63;2621053;47;20045;-66
2022/05/28 02:01:49;;;;;;;11.23;2.85;;;;;;;11.10;58.15;99382.25;2621191;54;20649;-65
2022/05/28 02:04:19;;;;;;;8.27;2.63;;;;;;;11.09;58.13;99375.31;2620348;54;20027;-65
2022/05/28 02:06:49;;;;;;;15.07;3.45;;;;;;;11.06;58.19;99380.13;2620776;54;20125;-65
2022/05/28 02:09:24;;;;;;;7.32;2.53;;;;;;;10.91;58.33;99375.66;2620903;54;20068;-65
2022/05/28 02:12:10;;;;;;;7.30;2.60;;;;;;;10.80;58.84;99380.56;2621426;54;20035;-64
2022/05/28 02:14:51;;;;;;;10.27;2.50;;;;;;;10.83;58.87;99375.75;2623373;54;20034;-64
2022/05/28 02:17:25;;;;;;;9.65;3.05;;;;;;;10.84;58.99;99373.91;2623699;54;20031;-64
2022/05/28 02:20:04;;;;;;;6.43;2.80;;;;;;;10.81;59.08;99371.63;2624767;54;20035;-65
2022/05/28 02:22:40;;;;;;;12.52;2.97;;;;;;;10.76;58.86;99366.06;2625669;54;20030;-64
2022/05/28 02:25:13;;;;;;;7.43;2.53;;;;;;;10.73;59.11;99361.94;2624874;54;20066;-68
2022/05/28 02:27:44;;;;;;;11.13;3.28;;;;;;;10.71;59.03;99363.13;2623670;47;20031;-66
2022/05/28 02:30:17;;;;;;;7.72;2.65;;;;;;;10.68;59.45;99368.78;2623773;54;20035;-64
2022/05/28 02:32:47;;;;;;;9.15;3.03;;;;;;;10.65;59.62;99372.59;2624058;54;20050;-65
2022/05/28 02:35:17;;;;;;;10.70;3.08;;;;;;;10.59;59.43;99368.84;2624879;54;20046;-66
2022/05/28 02:37:46;;;;;;;6.82;2.70;;;;;;;10.60;59.53;99367.84;2625178;39;20433;-66
2022/05/28 02:40:16;;;;;;;8.23;3.00;;;;;;;10.61;59.41;99374.81;2624008;47;20038;-65
2022/05/28 02:42:46;;;;;;;7.13;2.80;;;;;;;10.61;59.58;99371.31;2624492;54;20042;-67
2022/05/28 02:45:18;;;;;;;10.98;3.10;;;;;;;10.55;59.20;99379.97;2623846;54;20035;-66
2022/05/28 02:47:48;;;;;;;9.60;2.80;;;;;;;10.45;59.44;99369.66;2624185;54;20610;-65
2022/05/28 02:50:18;;;;;;;9.25;2.55;;;;;;;10.43;60.04;99368.16;2625034;54;20634;-68
2022/05/28 02:52:48;;;;;;;8.43;2.70;;;;;;;10.33;60.14;99373.72;2625667;31;20464;-66
2022/05/28 02:55:18;;;;;;;9.10;2.88;;;;;;;10.27;60.33;99369.94;2624378;47;20033;-65
2022/05/28 02:57:47;;;;;;;9.35;4.10;;;;;;;10.28;60.52;99368.13;2624149;47;20602;-67
2022/05/28 03:00:21;;;;;;;9.30;3.25;;;;;;;10.29;60.78;99377.72;2625640;54;20029;-67
2022/05/28 03:02:51;;;;;;;4.75;2.75;;;;;;;10.19;60.88;99372.59;2624848;51;20630;-67
2022/05/28 03:05:24;;;;;;;10.32;3.33;;;;;;;10.18;61.02;99373.63;2625527;54;20038;-69
2022/05/28 03:07:54;;;;;;;6.22;2.92;;;;;;;10.17;60.80;99371.97;2624507;54;20026;-66
2022/05/28 03:10:23;;;;;;;13.65;3.10;;;;;;;10.07;60.93;99374.81;2624562;54;20015;-67
2022/05/28 03:12:53;;;;;;;7.15;2.80;;;;;;;10.05;60.94;99373.38;2624742;54;20582;-67
2022/05/28 03:15:25;;;;;;;6.43;2.83;;;;;;;10.08;61.33;99370.38;2626635;39;20111;-66
2022/05/28 03:17:56;;;;;;;8.35;2.97;;;;;;;10.11;61.29;99376.13;2624139;54;20531;-66
2022/05/28 03:20:26;;;;;;;5.60;2.80;;;;;;;10.14;61.07;99382.88;2625315;54;20030;-66
2022/05/28 03:22:55;;;;;;;7.32;2.72;;;;;;;10.11;61.02;99375.31;2623997;54;20033;-66
2022/05/28 03:25:26;;;;;;;5.97;2.70;;;;;;;10.05;61.10;99373.38;2625164;54;20043;-67
2022/05/28 03:27:55;;;;;;;12.70;3.10;;;;;;;10.05;61.01;99374.19;2625108;54;20036;-66
2022/05/28 03:30:28;;;;;;;8.82;2.90;;;;;;;10.01;61.04;99374.72;2625100;54;20034;-66
2022/05/28 03:32:57;;;;;;;6.78;3.05;;;;;;;9.98;60.99;99372.44;2625074;54;20034;-66
2022/05/28 03:35:27;;;;;;;8.48;2.72;;;;;;;9.91;60.91;99381.03;2624642;54;20034;-65
2022/05/28 03:37:57;;;;;;;10.75;2.85;;;;;;;9.80;61.34;99381.44;2624765;54;20027;-66
2022/05/28 03:40:26;;;;;;;8.27;2.28;;;;;;;9.76;61.75;99374.06;2625167;54;20030;-64
2022/05/28 03:42:56;;;;;;;8.82;2.30;;;;;;;9.79;61.57;99377.13;2624520;54;20034;-64
2022/05/28 03:45:29;;;;;;;4.72;2.20;;;;;;;9.81;61.48;99384.91;2624584;54;20045;-63
2022/05/28 03:47:59;;;;;;;7.72;2.90;;;;;;;9.82;61.56;99382.09;2624322;54;20034;-63
2022/05/28 03:50:29;;;;;;;9.70;2.85;;;;;;;9.89;61.46;99377.75;2625324;54;20037;-66
2022/05/28 03:52:58;;;;;;;3.17;2.17;;;;;;;9.92;61.38;99384.53;2625425;54;20027;-67
2022/05/28 03:55:28;;;;;;;5.53;2.72;;;;;;;9.89;61.62;99382.22;2625772;54;20086;-65
2022/05/28 03:57:58;;;;;;;7.57;3.00;;;;;;;9.84;61.76;99384.56;2624693;54;20042;-66
2022/05/28 04:00:30;;;;;;;6.90;3.40;;;;;;;9.66;61.79;99390.09;2624305;54;20037;-66
2022/05/28 04:03:00;;;;;;;6.40;2.45;;;;;;;9.62;62.19;99386.13;2624995;54;20023;-63
2022/05/28 04:05:30;;;;;;;6.38;2.67;;;;;;;9.77;62.50;99389.72;2624871;54;20030;-64
2022/05/28 04:08:00;;;;;;;9.25;2.30;;;;;;;9.94;61.89;99398.34;2620899;54;20041;-65
2022/05/28 04:10:30;;;;;;;8.35;2.60;;;;;;;9.98;61.73;99409.41;2621318;46;20070;-64
2022/05/28 04:12:59;;;;;;;6.40;2.83;;;;;;;10.02;61.34;99406.25;2625271;54;20037;-65
2022/05/28 04:15:32;;;;;;;5.35;2.15;;;;;;;10.09;61.55;99404.56;2624947;54;20030;-67
2022/05/28 04:18:02;;;;;;;12.65;3.17;;;;;;;10.11;61.42;99401.72;2623975;54;20034;-64
2022/05/28 04:20:32;;;;;;;9.40;3.08;;;;;;;10.12;61.57;99398.06;2624069;54;20538;-65
2022/05/28 04:23:01;;;;;;;7.32;2.80;;;;;;;10.22;61.49;99398.69;2622940;54;20087;-65
2022/05/28 04:25:31;;;;;;;6.38;3.15;;;;;;;10.24;61.09;99391.38;2622254;54;20035;-65
2022/05/28 04:28:01;;;;;;;7.25;3.10;;;;;;;10.36;60.83;99402.41;2621947;54;20038;-64
2022/05/28 04:30:33;;;;;;;7.03;2.95;;;;;;;10.43;60.70;99397.25;2620937;54;20038;-63
2022/05/28 04:33:03;;;;;;;7.32;3.08;;;;;;;10.59;60.82;99399.75;2621744;54;20030;-66
2022/05/28 04:35:32;;;;;;;11.35;4.43;;;;;;;10.76;60.56;99403.91;2623088;54;20033;-65
2022/05/28 04:38:02;;;;;;;7.70;3.20;;;;;;;10.84;60.29;99395.06;2624294;54;20031;-65
2022/05/28 04:40:32;;;;;;;7.97;3.13;;;;;;;10.89;59.99;99403.28;2622813;54;20038;-66
2022/05/28 04:43:02;;;;;;;6.60;2.90;;;;;;;10.91;59.93;99406.59;2622424;54;20038;-67
2022/05/28 04:45:34;;;;;;;6.90;2.70;;;;;;;10.86;59.68;99411.59;2623160;54;20090;-63
2022/05/28 04:48:03;;;;;;;6.47;3.15;;;;;;;10.97;59.79;99407.69;2621533;54;20044;-65
2022/05/28 04:50:33;;;;;;;11.75;3.83;;;;;;;11.00;59.44;99405.50;2624418;54;20037;-64
2022/05/28 04:53:03;;;;;;;6.57;3.17;;;;;;;11.07;59.39;99418.84;2623437;54;20026;-68
2022/05/28 04:55:33;;;;;;;5.97;3.05;;;;;;;11.06;59.55;99415.38;2621399;54;20030;-65
2022/05/28 04:58:03;;;;;;;7.93;3.28;;;;;;;11.08;59.14;99418.66;2621015;39;20403;-65
2022/05/28 05:00:36;;;;;;;6.95;2.95;;;;;;;11.04;59.19;99414.72;2620730;54;20041;-65
2022/05/28 05:03:06;;;;;;;11.45;3.90;;;;;;;11.05;59.46;99421.66;2620490;54;20026;-66
2022/05/28 05:05:35;;;;;;;8.13;3.15;;;;;;;11.07;59.17;99416.19;2620612;54;20038;-64
2022/05/28 05:08:06;;;;;;;11.65;2.88;;;;;;;11.04;58.94;99414.72;2620404;46;20060;-67
2022/05/28 05:10:36;;;;;;;9.77;3.15;;;;;;;11.07;58.98;99421.50;2620636;54;20042;-64
2022/05/28 05:13:07;;;;;;;7.10;3.05;;;;;;;11.12;58.91;99416.47;2621074;54;20034;-66
2022/05/28 05:15:40;;;;;;;7.93;3.20;;;;;;;11.21;58.97;99422.50;2620813;47;20037;-65
2022/05/28 05:18:10;;;;;;;8.00;2.90;;;;;;;11.25;58.58;99416.66;2620488;54;20033;-63
2022/05/28 05:20:40;;;;;;;8.57;2.90;;;;;;;11.24;58.48;99415.00;2620799;47;20035;-64
2022/05/28 05:23:10;;;;;;;7.28;3.03;;;;;;;11.24;58.44;99419.50;2620516;54;20022;-64
2022/05/28 05:25:40;;;;;;;7.43;3.03;;;;;;;11.27;58.37;99414.66;2623048;54;20535;-64
2022/05/28 05:28:10;;;;;;;9.00;3.00;;;;;;;11.35;58.57;99416.41;2622682;47;20030;-64
2022/05/28 05:30:42;;;;;;;9.60;3.35;;;;;;;11.27;57.50;99419.13;2622365;54;20034;-64
2022/05/28 05:33:12;;;;;;;7.32;2.88;;;;;;;11.24;57.74;99420.31;2623125;54;20045;-65
2022/05/28 05:35:41;;;;;;;6.60;2.65;;;;;;;11.35;57.23;99417.22;2620262;54;20030;-64
2022/05/28 05:38:12;;;;;;;12.45;3.00;;;;;;;11.46;57.02;99423.88;2621338;54;20082;-63
2022/05/28 05:40:42;;;;;;;12.27;3.75;;;;;;;11.61;57.17;99423.88;2621094;54;20027;-66
2022/05/28 05:43:11;;;;;;;7.00;2.70;;;;;;;11.65;56.48;99425.97;2620780;54;20038;-65
2022/05/28 05:45:43;;;;;;;5.43;2.60;;;;;;;11.54;55.94;99426.41;2620363;39;20430;-65
2022/05/28 05:48:13;;;;;;;6.93;2.28;;;;;;;11.49;56.33;99422.69;2621238;54;20566;-64
2022/05/28 05:50:43;;;;;;;11.35;2.45;;;;;;;11.56;56.05;99432.38;2620493;54;20030;-66
2022/05/28 05:53:13;;;;;;;8.43;2.55;;;;;;;11.59;55.69;99434.66;2620970;54;20030;-64
2022/05/28 05:55:42;;;;;;;5.25;1.85;;;;;;;11.59;55.83;99437.31;2621080;54;20037;-64
2022/05/28 05:58:12;;;;;;;7.30;2.38;;;;;;;11.58;55.40;99432.16;2622144;54;20030;-65
2022/05/28 06:00:45;;;;;;;6.05;2.53;;;;;;;11.65;55.47;99433.09;2622656;54;20030;-65
2022/05/28 06:03:18;;;;;;;8.18;2.22;;;;;;;11.77;54.73;99430.78;2621909;54;20015;-64
2022/05/28 06:05:48;;;;;;;8.82;2.45;;;;;;;11.92;54.96;99428.97;2622599;54;20038;-65
2022/05/28 06:08:18;;;;;;;5.25;1.85;;;;;;;12.05;54.49;99426.47;2622896;54;20146;-66
2022/05/28 06:10:48;;;;;;;7.95;2.60;;;;;;;12.17;54.28;99421.50;2623516;54;20042;-64
2022/05/28 06:13:18;;;;;;;7.10;2.38;;;;;;;12.28;54.08;99425.47;2624085;54;20039;-64
2022/05/28 06:15:50;;;;;;;4.32;1.83;;;;;;;12.40;54.14;99424.78;2625021;54;20038;-66
2022/05/28 06:18:20;;;;;;;9.40;2.30;;;;;;;12.48;53.41;99417.72;2624763;54;20040;-64
2022/05/28 06:20:50;;;;;;;10.00;2.60;;;;;;;12.54;53.17;99422.28;2624115;46;20035;-65
2022/05/28 06:23:20;;;;;;;8.43;2.97;;;;;;;12.57;52.98;99425.38;2624376;46;20050;-66
2022/05/28 06:25:50;;;;;;;9.02;1.90;;;;;;;12.60;52.67;99427.63;2625555;39;20739;-64
2022/05/28 06:28:20;;;;;;;10.23;2.22;;;;;;;12.66;52.82;99422.59;2624508;54;20101;-64
2022/05/28 06:30:52;;;;;;;9.70;2.00;;;;;;;12.81;52.28;99418.81;2624957;54;20035;-64
2022/05/28 06:33:22;;;;;;;9.13;2.17;;;;;;;13.01;52.36;99418.97;2624604;54;20037;-64
2022/05/28 06:35:57;;;;;;;5.38;2.10;;;;;;;13.17;51.97;99414.41;2625043;54;20022;-66
2022/05/28 06:38:28;;;;;;;7.68;2.60;;;;;;;13.19;50.83;99405.25;2625254;54;20561;-65
2022/05/28 06:40:59;;;;;;;8.40;2.38;;;;;;;13.27;50.77;99405.13;2623799;54;20034;-65
2022/05/28 06:43:30;;;;;;;11.93;2.67;;;;;;;13.40;50.90;99403.56;2624246;54;20019;-64
2022/05/28 06:46:06;;;;;;;7.55;1.95;;;;;;;13.48;50.35;99406.06;2624528;54;20033;-65
2022/05/28 06:48:37;;;;;;;7.78;1.77;;;;;;;13.60;50.39;99404.47;2624210;54;20030;-64
2022/05/28 06:51:08;;;;;;;9.10;2.30;;;;;;;13.61;50.09;99398.94;2624679;54;20119;-66
2022/05/28 06:53:40;;;;;;;7.55;2.38;;;;;;;13.73;49.83;99403.72;2624138;54;20030;-67
2022/05/28 06:56:11;;;;;;;6.53;2.17;;;;;;;13.74;49.40;99400.84;2623947;47;20026;-67
2022/05/28 06:58:43;;;;;;;11.52;2.70;;;;;;;13.81;49.84;99401.69;2623144;54;20029;-67
2022/05/28 07:01:17;;;;;;;3.50;1.60;;;;;;;13.98;49.12;99396.03;2623541;54;20555;-65
2022/05/28 07:03:47;;;;;;;9.52;2.08;;;;;;;14.08;49.35;99397.28;2625079;39;20409;-65
2022/05/28 07:06:17;;;;;;;7.47;1.95;;;;;;;14.16;49.11;99388.28;2621362;54;20031;-66
2022/05/28 07:08:48;;;;;;;5.20;2.13;;;;;;;14.28;48.76;99389.34;2622999;54;20034;-66
2022/05/28 07:11:18;;;;;;;7.20;1.88;;;;;;;14.36;49.05;99386.47;2626747;54;20043;-65
2022/05/28 07:13:48;;;;;;;8.68;1.90;;;;;;;14.31;48.32;99378.31;2629360;54;20048;-65
2022/05/28 07:16:20;;;;;;;7.00;2.13;;;;;;;14.44;48.54;99392.63;2625017;54;20030;-65
2022/05/28 07:18:50;;;;;;;8.98;2.00;;;;;;;14.56;48.53;99383.06;2627338;54;20038;-67
2022/05/28 07:21:19;;;;;;;7.22;2.40;;;;;;;14.62;47.48;99384.91;2629179;54;20034;-66
2022/05/28 07:23:49;;;;;;;7.80;2.20;;;;;;;14.65;47.86;99389.81;2630013;54;20078;-65
2022/05/28 07:26:20;;;;;;;7.65;2.47;;;;;;;14.69;47.59;99388.38;2625485;54;20049;-65
2022/05/28 07:28:50;;;;;;;10.88;2.85;;;;;;;14.73;47.42;99386.94;2623430;54;20038;-66
2022/05/28 07:31:23;;;;;;;7.82;2.20;;;;;;;14.88;47.06;99385.94;2620241;54;20582;-65
2022/05/28 07:33:53;;;;;;;9.13;1.97;;;;;;;15.01;47.47;99388.56;2620393;54;20029;-65
2022/05/28 07:36:24;;;;;;;6.97;2.50;;;;;;;15.18;47.53;99383.63;2620782;54;20279;-66
2022/05/28 07:38:56;;;;;;;4.82;1.95;;;;;;;15.23;47.35;99384.66;2620229;47;20547;-66
2022/05/28 07:41:27;;;;;;;7.07;2.20;;;;;;;15.38;46.98;99379.06;2620229;54;20574;-65
2022/05/28 07:43:58;;;;;;;8.75;2.25;;;;;;;15.60;46.88;99382.28;2620447;54;20035;-65
2022/05/28 07:46:33;;;;;;;6.35;1.80;;;;;;;15.70;45.88;99385.34;2621742;47;20034;-67
2022/05/28 07:49:04;;;;;;;6.47;2.38;;;;;;;15.67;46.19;99372.44;2620886;54;20038;-68
2022/05/28 07:51:35;;;;;;;6.13;1.98;;;;;;;15.67;45.97;99387.59;2621867;54;20158;-65
2022/05/28 07:54:06;;;;;;;7.40;1.92;;;;;;;15.83;45.49;99382.59;2622144;54;20031;-66
2022/05/28 07:56:36;;;;;;;6.93;2.35;;;;;;;15.73;44.66;99371.59;2622921;54;20030;-65
2022/05/28 07:59:05;;;;;;;13.27;2.05;;;;;;;15.35;44.77;99376.84;2620607;47;20536;-65
2022/05/28 08:01:39;;;;;;;9.10;2.55;;;;;;;15.40;45.28;99376.22;2621005;47;20115;-66
2022/05/28 08:04:09;;;;;;;;;;;;;;;15.49;44.98;99369.63;2621247;54;20027;-67
2022/05/28 08:06:40;;;;;;;13.10;3.72;;;;;;;15.61;45.12;99363.41;2622283;39;20338;-65
2022/05/28 08:09:12;;;;;;;5.30;2.28;;;;;;;15.84;44.24;99362.94;2622586;46;20050;-65
2022/05/28 08:11:42;;;;;;;10.63;2.33;;;;;;;16.12;43.18;99351.06;2623966;54;20037;-64
2022/05/28 08:14:12;;;;;;;5.72;2.15;;;;;;;16.19;42.99;99356.38;2623745;54;20030;-67
2022/05/28 08:16:44;;;;;;;7.00;1.95;;;;;;;16.35;42.74;99347.84;2624063;54;20034;-67
2022/05/28 08:19:14;;;;;;;4.00;1.70;;;;;;;16.54;42.44;99343.41;2623218;47;20065;-67
2022/05/28 08:24:34;;;;;;;7.40;2.03;;;;;;;16.54;42.78;99338.88;2621338;47;20022;-67
2022/05/28 08:27:04;;;;;;;4.40;1.85;;;;;;;16.38;42.87;99354.59;2622938;39;20454;-64
2022/05/28 08:29:34;;;;;;;6.47;2.00;;;;;;;16.31;42.99;99351.97;2622030;54;20045;-66
2022/05/28 08:32:07;;;;;;;7.03;2.08;;;;;;;16.22;43.48;99354.09;2622123;54;20103;-67
2022/05/28 08:34:37;;;;;;;6.50;1.92;;;;;;;16.10;43.89;99351.28;2622258;54;20026;-65
2022/05/28 08:37:07;;;;;;;9.55;3.00;;;;;;;16.21;43.73;99362.31;2622347;54;20030;-67
2022/05/28 08:39:36;;;;;;;10.60;1.98;;;;;;;16.33;43.23;99357.94;2622344;54;20035;-67
2022/05/28 08:42:08;;;;;;;9.38;2.72;;;;;;;16.38;43.12;99349.28;2621659;54;20042;-67
2022/05/28 08:44:41;;;;;;;4.40;1.95;;;;;;;16.48;42.69;99352.25;2621901;54;20026;-67
2022/05/28 08:47:24;;;;;;;6.75;2.90;;;;;;;16.57;42.24;99348.28;2621537;54;20038;-67
2022/05/28 08:49:55;;;;;;;5.65;2.17;;;;;;;16.85;41.89;99353.19;2620834;47;20118;-65
2022/05/28 08:52:31;;;;;;;4.82;2.45;;;;;;;16.83;41.46;99344.59;2620844;54;20034;-68
2022/05/28 08:55:04;;;;;;;4.10;1.80;;;;;;;16.80;40.78;99345.84;2619708;54;20051;-66
2022/05/28 08:57:47;;;;;;;3.28;1.40;;;;;;;16.68;40.51;99344.09;2621211;54;20026;-66
2022/05/28 09:00:20;;;;;;;6.00;1.83;;;;;;;16.74;40.40;99340.59;2621129;54;20034;-66
2022/05/28 09:02:56;;;;;;;4.50;1.55;;;;;;;16.79;40.43;99335.41;2621669;54;20018;-64
2022/05/28 09:05:29;;;;;;;5.35;1.90;;;;;;;16.86;40.34;99346.00;2622389;39;20442;-67
2022/05/28 09:08:02;;;;;;;7.15;2.83;;;;;;;16.75;40.75;99344.88;2622631;39;20467;-66
2022/05/28 09:10:38;;;;;;;4.75;1.45;;;;;;;16.72;40.60;99340.75;2622790;47;20022;-67
2022/05/28 09:13:19;;;;;;;6.03;1.92;;;;;;;16.84;40.50;99340.88;2623980;39;20434;-67
2022/05/28 09:15:49;;;;;;;4.93;1.90;;;;;;;16.95;40.20;99334.00;2623039;39;20410;-67
2022/05/28 09:18:23;;;;;;;4.20;1.15;;;;;;;17.08;39.11;99325.88;2622232;47;20027;-68
2022/05/28 09:20:53;;;;;;;4.78;1.23;;;;;;;16.91;38.29;99332.81;2622198;54;20026;-66
2022/05/28 09:23:22;;;;;;;4.43;2.15;;;;;;;17.03;38.96;99329.19;2619801;47;20042;-65
2022/05/28 09:25:54;;;;;;;3.40;1.70;;;;;;;17.18;39.42;99336.00;2621078;54;20115;-65
2022/05/28 09:28:38;;;;;;;6.57;1.65;;;;;;;17.25;39.41;99326.09;2621343;39;20430;-64
2022/05/28 09:31:25;;;;;;;5.47;1.67;;;;;;;17.55;38.63;99320.78;2621940;54;20034;-67
2022/05/28 09:34:09;;;;;;;7.50;1.83;;;;;;;17.64;38.47;99315.97;2621861;54;20042;-67
2022/05/28 09:36:50;;;;;;;7.90;1.73;;;;;;;17.53;38.67;99318.34;2622207;54;20074;-67
2022/05/28 09:39:32;;;;;;;5.53;1.90;;;;;;;17.66;38.66;99322.69;2622089;54;20554;-66
2022/05/28 09:42:11;;;;;;;4.65;1.40;;;;;;;17.55;37.54;99326.97;2621103;47;20030;-66
2022/05/28 09:44:56;;;;;;;3.67;1.30;;;;;;;17.22;37.16;99323.84;2622488;54;20042;-67
2022/05/28 09:47:25;;;;;;;2.90;1.27;;;;;;;17.05;36.75;99320.97;2622029;39;20404;-67
2022/05/28 09:49:59;;;;;;;2.85;1.63;;;;;;;17.05;36.92;99318.28;2622496;54;20042;-67
2022/05/28 09:52:34;;;;;;;4.35;1.25;;;;;;;17.16;37.13;99327.44;2621081;54;20030;-66
2022/05/28 09:55:12;;;;;;;3.90;1.10;;;;;;;17.22;36.81;99319.31;2621870;47;20030;-68
2022/05/28 09:57:47;;;;;;;2.78;1.25;;;;;;;17.51;36.80;99308.91;2622850;54;20038;-66
2022/05/28 10:00:18;;;;;;;6.18;1.88;;;;;;;17.79;36.29;99303.81;2622499;47;20030;-67
2022/05/28 10:05:45;;;;;;;2.72;0.82;;;;;;;18.37;34.34;99293.47;2621349;47;20042;-65
2022/05/28 10:08:14;;;;;;;2.08;1.02;;;;;;;18.26;34.46;99287.09;2620388;54;20045;-66
2022/05/28 10:10:44;;;;;;;2.80;0.98;;;;;;;18.21;32.70;99279.75;2621730;54;20030;-67
2022/05/28 10:13:16;;;;;;;2.10;0.70;;;;;;;17.94;33.35;99274.00;2621806;54;20030;-67
2022/05/28 10:15:51;;;;;;;3.85;1.00;;;;;;;18.10;33.54;99275.19;2622491;46;20057;-67
2022/05/28 10:18:25;;;;;;;2.75;1.13;;;;;;;18.04;33.42;99282.28;2621202;54;20074;-67
2022/05/28 10:21:09;;;;;;;2.03;0.90;;;;;;;18.06;33.97;99276.69;2621308;54;20566;-68
2022/05/28 10:23:41;;;;;;;2.88;1.10;;;;;;;18.12;34.39;99277.63;2621219;39;20509;-65
2022/05/28 10:26:20;;;;;;;5.37;1.50;;;;;;;18.15;34.37;99279.84;2619777;54;20027;-65
2022/05/28 10:28:52;;;;;;;4.75;1.35;;;;;;;18.12;34.53;99280.31;2622297;54;20031;-67
2022/05/28 10:31:28;;;;;;;4.90;1.40;;;;;;;18.02;34.62;99279.00;2621231;54;20041;-66
2022/05/28 10:33:58;;;;;;;2.80;1.08;;;;;;;17.89;35.15;99281.91;2622385;54;20030;-66
2022/05/28 10:36:33;;;;;;;5.80;1.67;;;;;;;17.89;34.93;99279.22;2622211;54;20022;-67
2022/05/28 10:39:08;;;;;;;3.67;1.20;;;;;;;17.92;34.90;99280.59;2620986;54;20027;-67
2022/05/28 10:41:38;;;;;;;3.53;1.23;;;;;;;17.93;35.14;99279.59;2619993;54;20069;-67
2022/05/28 10:44:08;;;;;;;2.90;1.10;;;;;;;17.91;35.65;99277.13;2619289;54;20034;-65
2022/05/28 10:47:02;;;;;;;3.97;1.30;;;;;;;17.99;35.47;99275.97;2618815;54;20035;-64
2022/05/28 10:49:38;;;;;;;;;;;;;;;18.21;35.27;99269.06;2620689;54;20038;-67
2022/05/28 10:52:24;;;;;;;3.08;1.30;;;;;;;18.37;34.82;99264.88;2621312;54;20038;-68
2022/05/28 10:55:00;;;;;;;3.67;1.30;;;;;;;18.27;34.46;99260.09;2621292;54;20038;-66
2022/05/28 10:58:07;;;;;;;3.30;1.42;;;;;;;18.30;34.61;99256.16;2622529;54;20038;-67
2022/05/28 11:00:50;;;;;;;4.93;1.25;;;;;;;18.51;33.81;99255.56;2620363;54;20034;-68
2022/05/28 11:03:43;;;;;;;2.45;1.10;;;;;;;18.51;34.15;99244.03;2621794;54;20029;-67
2022/05/28 11:06:31;;;;;;;;;;;;;;;18.48;34.39;99245.31;2622657;54;20026;-66
2022/05/28 11:09:12;;;;;;;5.80;2.08;;;;;;;18.72;34.71;99234.63;2621634;54;19949;-66
2022/05/28 11:12:03;;;;;;;4.20;1.60;;;;;;;18.68;33.60;99238.78;2623248;54;20038;-69
2022/05/28 11:14:49;;;;;;;4.10;1.33;;;;;;;18.56;34.46;99238.78;2620761;54;20038;-66
2022/05/28 11:17:34;;;;;;;5.47;1.40;;;;;;;18.68;34.40;99236.13;2622532;54;20038;-65
2022/05/28 11:20:20;;;;;;;4.35;1.20;;;;;;;18.62;34.07;99242.41;2622168;54;20038;-68
2022/05/28 11:23:18;;;;;;;5.07;1.35;;;;;;;18.80;34.06;99236.94;2620426;54;20052;-66
2022/05/28 11:26:10;;;;;;;4.05;1.35;;;;;;;18.97;33.86;99229.00;2621151;54;20565;-67
2022/05/28 11:28:59;;;;;;;2.92;1.38;;;;;;;18.93;34.09;99230.50;2622536;54;20026;-68
2022/05/28 11:31:36;;;;;;;4.00;1.50;;;;;;;18.72;34.02;99219.38;2620919;54;20031;-65
2022/05/28 11:34:12;;;;;;;4.38;1.50;;;;;;;18.65;34.26;99215.97;2620697;54;20050;-64
2022/05/28 11:36:46;;;;;;;1.58;1.05;;;;;;;18.59;34.54;99216.91;2622092;54;20035;-68
2022/05/28 11:39:23;;;;;;;4.45;1.45;;;;;;;18.46;34.64;99217.97;2623640;39;20444;-67
2022/05/28 11:42:01;;;;;;;3.22;1.20;;;;;;;18.65;34.53;99213.28;2622988;54;20037;-67
2022/05/28 11:44:36;;;;;;;5.22;1.40;;;;;;;19.02;33.81;99213.84;2620511;47;20027;-64
2022/05/28 11:47:16;;;;;;;4.78;1.10;;;;;;;19.16;33.31;99200.97;2620540;54;20037;-67
2022/05/28 11:52:50;;;;;;;5.47;1.60;;;;;;;19.67;32.91;99196.56;2619228;54;20038;-66
2022/05/28 11:55:23;;;;;;;6.30;1.20;;;;;;;19.68;32.47;99192.03;2620664;54;20045;-66
2022/05/28 11:58:00;;;;;;;2.17;1.33;;;;;;;19.41;32.47;99189.91;2619982;47;20034;-67
2022/05/28 12:00:35;;;;;;;2.85;1.17;;;;;;;19.12;33.04;99193.66;2621049;54;20034;-66
2022/05/28 12:03:14;;;;;;;3.67;1.10;;;;;;;18.72;32.74;99176.53;2620048;54;20037;-65
2022/05/28 12:05:48;;;;;;;4.97;1.20;;;;;;;18.35;33.16;99177.84;2620852;39;20739;-67
2022/05/28 12:08:28;;;;;;;2.97;1.05;;;;;;;18.20;34.41;99175.63;2620494;54;20094;-66
2022/05/28 12:11:02;;;;;;;3.42;1.15;;;;;;;18.18;34.84;99177.72;2620676;54;20130;-66